sensor_id;sensor_type;location;lat;lon;timestamp;P1;durP1;ratioP1;P2;durP2;ratioP2
51190;SDS011;37253;48.736;9.294;2024-03-29T00:01:52;3.03;;;0.90;;
51190;SDS011;37253;48.736;9.294;2024-03-29T00:03:53;3.55;;;0.82;;
51190;SDS011;37253;48.736;9.294;2024-03-29T00:05:53;3.03;;;0.80;;
51190;SDS011;37253;48.736;9.294;2024-03-29T00:07:54;3.53;;;1.10;;
51190;SDS011;37253;48.736;9.294;2024-03-29T00:09:54;4.22;;;0.90;;
51190;SDS011;37253;48.736;9.294;2024-03-29T00:11:54;2.28;;;1.20;;
51190;SDS011;37253;48.736;9.294;2024-03-29T00:13:54;2.20;;;0.82;;
51190;SDS011;37253;48.736;9.294;2024-03-29T00:15:55;3.40;;;0.90;;
51190;SDS011;37253;48.736;9.294;2024-03-29T00:17:55;3.03;;;0.82;;
51190;SDS011;37253;48.736;9.294;2024-03-29T00:19:55;2.83;;;1.00;;
51190;SDS011;37253;48.736;9.294;2024-03-29T00:21:56;1.48;;;1.00;;
51190;SDS011;37253;48.736;9.294;2024-03-29T00:23:56;2.45;;;1.00;;
51190;SDS011;37253;48.736;9.294;2024-03-29T00:25:56;4.28;;;0.82;;
51190;SDS011;37253;48.736;9.294;2024-03-29T00:27:58;1.98;;;0.95;;
51190;SDS011;37253;48.736;9.294;2024-03-29T00:29:58;2.78;;;0.70;;
51190;SDS011;37253;48.736;9.294;2024-03-29T00:31:58;2.78;;;0.88;;
51190;SDS011;37253;48.736;9.294;2024-03-29T00:33:59;3.15;;;0.82;;
51190;SDS011;37253;48.736;9.294;2024-03-29T00:35:59;3.67;;;0.80;;
51190;SDS011;37253;48.736;9.294;2024-03-29T00:37:59;3.53;;;0.85;;
51190;SDS011;37253;48.736;9.294;2024-03-29T00:40:00;1.75;;;0.82;;
51190;SDS011;37253;48.736;9.294;2024-03-29T00:42:00;4.38;;;1.00;;
51190;SDS011;37253;48.736;9.294;2024-03-29T00:44:00;5.72;;;1.00;;
51190;SDS011;37253;48.736;9.294;2024-03-29T00:46:01;7.13;;;0.90;;
51190;SDS011;37253;48.736;9.294;2024-03-29T00:48:01;2.83;;;1.02;;
51190;SDS011;37253;48.736;9.294;2024-03-29T00:50:01;1.85;;;0.70;;
51190;SDS011;37253;48.736;9.294;2024-03-29T00:52:03;3.88;;;1.00;;
51190;SDS011;37253;48.736;9.294;2024-03-29T00:54:03;3.10;;;0.93;;
51190;SDS011;37253;48.736;9.294;2024-03-29T00:56:04;1.92;;;0.88;;
51190;SDS011;37253;48.736;9.294;2024-03-29T00:58:04;1.83;;;0.90;;
51190;SDS011;37253;48.736;9.294;2024-03-29T01:00:05;1.17;;;0.80;;
51190;SDS011;37253;48.736;9.294;2024-03-29T01:02:06;1.92;;;0.90;;
51190;SDS011;37253;48.736;9.294;2024-03-29T01:04:06;2.22;;;1.02;;
51190;SDS011;37253;48.736;9.294;2024-03-29T01:06:06;3.08;;;1.00;;
51190;SDS011;37253;48.736;9.294;2024-03-29T01:08:06;2.42;;;0.88;;
51190;SDS011;37253;48.736;9.294;2024-03-29T01:10:07;1.63;;;0.82;;
51190;SDS011;37253;48.736;9.294;2024-03-29T01:12:09;1.38;;;0.73;;
51190;SDS011;37253;48.736;9.294;2024-03-29T01:14:09;2.38;;;0.80;;
51190;SDS011;37253;48.736;9.294;2024-03-29T01:16:10;1.40;;;0.82;;
51190;SDS011;37253;48.736;9.294;2024-03-29T01:18:10;4.72;;;0.90;;
51190;SDS011;37253;48.736;9.294;2024-03-29T01:20:10;3.88;;;0.90;;
51190;SDS011;37253;48.736;9.294;2024-03-29T01:22:11;1.95;;;0.80;;
51190;SDS011;37253;48.736;9.294;2024-03-29T01:24:12;2.20;;;1.20;;
51190;SDS011;37253;48.736;9.294;2024-03-29T01:26:12;2.65;;;1.00;;
51190;SDS011;37253;48.736;9.294;2024-03-29T01:28:12;1.60;;;0.85;;
51190;SDS011;37253;48.736;9.294;2024-03-29T01:30:13;2.03;;;0.88;;
51190;SDS011;37253;48.736;9.294;2024-03-29T01:32:14;3.17;;;0.98;;
51190;SDS011;37253;48.736;9.294;2024-03-29T01:34:14;1.52;;;0.77;;
51190;SDS011;37253;48.736;9.294;2024-03-29T01:36:14;2.60;;;0.88;;
51190;SDS011;37253;48.736;9.294;2024-03-29T01:38:14;3.78;;;0.90;;
51190;SDS011;37253;48.736;9.294;2024-03-29T01:40:15;1.80;;;0.75;;
51190;SDS011;37253;48.736;9.294;2024-03-29T01:42:15;1.42;;;0.70;;
51190;SDS011;37253;48.736;9.294;2024-03-29T01:44:15;2.67;;;0.93;;
51190;SDS011;37253;48.736;9.294;2024-03-29T01:46:17;1.50;;;0.90;;
51190;SDS011;37253;48.736;9.294;2024-03-29T01:48:20;4.57;;;0.80;;
51190;SDS011;37253;48.736;9.294;2024-03-29T01:50:22;1.00;;;0.63;;
51190;SDS011;37253;48.736;9.294;2024-03-29T01:52:22;1.77;;;0.80;;
51190;SDS011;37253;48.736;9.294;2024-03-29T01:54:23;1.85;;;0.80;;
51190;SDS011;37253;48.736;9.294;2024-03-29T01:56:23;4.43;;;0.95;;
51190;SDS011;37253;48.736;9.294;2024-03-29T01:58:24;2.95;;;0.80;;
51190;SDS011;37253;48.736;9.294;2024-03-29T02:00:25;2.13;;;1.00;;
51190;SDS011;37253;48.736;9.294;2024-03-29T02:02:26;1.40;;;0.80;;
51190;SDS011;37253;48.736;9.294;2024-03-29T02:04:27;2.50;;;0.90;;
51190;SDS011;37253;48.736;9.294;2024-03-29T02:06:27;1.75;;;0.80;;
51190;SDS011;37253;48.736;9.294;2024-03-29T02:08:28;2.15;;;0.90;;
51190;SDS011;37253;48.736;9.294;2024-03-29T02:10:28;1.30;;;0.70;;
51190;SDS011;37253;48.736;9.294;2024-03-29T02:12:29;2.38;;;0.80;;
51190;SDS011;37253;48.736;9.294;2024-03-29T02:14:29;1.05;;;0.70;;
51190;SDS011;37253;48.736;9.294;2024-03-29T02:16:29;1.75;;;0.73;;
51190;SDS011;37253;48.736;9.294;2024-03-29T02:18:30;0.95;;;0.60;;
51190;SDS011;37253;48.736;9.294;2024-03-29T02:20:30;1.45;;;0.80;;
51190;SDS011;37253;48.736;9.294;2024-03-29T02:22:32;3.13;;;1.10;;
51190;SDS011;37253;48.736;9.294;2024-03-29T02:24:35;1.83;;;1.00;;
51190;SDS011;37253;48.736;9.294;2024-03-29T02:26:35;1.77;;;1.00;;
51190;SDS011;37253;48.736;9.294;2024-03-29T02:28:41;2.30;;;0.80;;
51190;SDS011;37253;48.736;9.294;2024-03-29T02:30:42;1.45;;;0.60;;
51190;SDS011;37253;48.736;9.294;2024-03-29T02:32:42;1.13;;;0.70;;
51190;SDS011;37253;48.736;9.294;2024-03-29T02:34:42;2.95;;;0.73;;
51190;SDS011;37253;48.736;9.294;2024-03-29T02:36:43;2.15;;;0.75;;
51190;SDS011;37253;48.736;9.294;2024-03-29T02:38:43;2.55;;;0.75;;
51190;SDS011;37253;48.736;9.294;2024-03-29T02:40:44;2.05;;;0.82;;
51190;SDS011;37253;48.736;9.294;2024-03-29T02:42:44;2.65;;;0.70;;
51190;SDS011;37253;48.736;9.294;2024-03-29T02:44:46;2.50;;;0.80;;
51190;SDS011;37253;48.736;9.294;2024-03-29T02:46:46;1.13;;;0.80;;
51190;SDS011;37253;48.736;9.294;2024-03-29T02:48:46;1.45;;;0.80;;
51190;SDS011;37253;48.736;9.294;2024-03-29T02:50:47;1.23;;;0.73;;
51190;SDS011;37253;48.736;9.294;2024-03-29T02:52:47;1.38;;;0.80;;
51190;SDS011;37253;48.736;9.294;2024-03-29T02:54:47;2.10;;;0.70;;
51190;SDS011;37253;48.736;9.294;2024-03-29T02:56:48;2.30;;;0.73;;
51190;SDS011;37253;48.736;9.294;2024-03-29T02:58:48;1.50;;;0.82;;
51190;SDS011;37253;48.736;9.294;2024-03-29T03:00:48;2.70;;;0.65;;
51190;SDS011;37253;48.736;9.294;2024-03-29T03:02:49;2.28;;;0.80;;
51190;SDS011;37253;48.736;9.294;2024-03-29T03:04:49;0.95;;;0.60;;
51190;SDS011;37253;48.736;9.294;2024-03-29T03:06:49;1.85;;;0.70;;
51190;SDS011;37253;48.736;9.294;2024-03-29T03:08:50;0.90;;;0.70;;
51190;SDS011;37253;48.736;9.294;2024-03-29T03:11:09;1.48;;;0.80;;
51190;SDS011;37253;48.736;9.294;2024-03-29T03:13:09;2.65;;;1.05;;
51190;SDS011;37253;48.736;9.294;2024-03-29T03:15:09;2.45;;;0.82;;
51190;SDS011;37253;48.736;9.294;2024-03-29T03:17:10;1.30;;;0.65;;
51190;SDS011;37253;48.736;9.294;2024-03-29T03:19:10;1.50;;;0.70;;
51190;SDS011;37253;48.736;9.294;2024-03-29T03:21:10;2.08;;;0.70;;
51190;SDS011;37253;48.736;9.294;2024-03-29T03:23:10;2.05;;;0.90;;
51190;SDS011;37253;48.736;9.294;2024-03-29T03:25:11;2.15;;;0.60;;
51190;SDS011;37253;48.736;9.294;2024-03-29T03:27:11;1.83;;;0.80;;
51190;SDS011;37253;48.736;9.294;2024-03-29T03:29:11;1.85;;;0.77;;
51190;SDS011;37253;48.736;9.294;2024-03-29T03:31:12;1.60;;;0.80;;
51190;SDS011;37253;48.736;9.294;2024-03-29T03:33:12;1.17;;;0.70;;
51190;SDS011;37253;48.736;9.294;2024-03-29T03:35:12;0.80;;;0.50;;
51190;SDS011;37253;48.736;9.294;2024-03-29T03:37:13;1.38;;;0.70;;
51190;SDS011;37253;48.736;9.294;2024-03-29T03:39:13;1.42;;;0.68;;
51190;SDS011;37253;48.736;9.294;2024-03-29T03:41:13;1.30;;;0.60;;
51190;SDS011;37253;48.736;9.294;2024-03-29T03:43:13;1.27;;;0.65;;
51190;SDS011;37253;48.736;9.294;2024-03-29T03:45:14;2.28;;;0.70;;
51190;SDS011;37253;48.736;9.294;2024-03-29T03:47:14;1.80;;;0.77;;
51190;SDS011;37253;48.736;9.294;2024-03-29T03:49:14;0.75;;;0.52;;
51190;SDS011;37253;48.736;9.294;2024-03-29T03:51:15;1.00;;;0.60;;
51190;SDS011;37253;48.736;9.294;2024-03-29T03:53:16;0.75;;;0.50;;
51190;SDS011;37253;48.736;9.294;2024-03-29T03:55:16;0.60;;;0.50;;
51190;SDS011;37253;48.736;9.294;2024-03-29T03:57:16;0.75;;;0.50;;
51190;SDS011;37253;48.736;9.294;2024-03-29T03:59:17;1.48;;;0.70;;
51190;SDS011;37253;48.736;9.294;2024-03-29T04:01:17;2.15;;;0.70;;
51190;SDS011;37253;48.736;9.294;2024-03-29T04:03:17;1.80;;;0.70;;
51190;SDS011;37253;48.736;9.294;2024-03-29T04:05:18;2.78;;;0.70;;
51190;SDS011;37253;48.736;9.294;2024-03-29T04:07:19;1.02;;;0.60;;
51190;SDS011;37253;48.736;9.294;2024-03-29T04:09:19;1.25;;;0.73;;
51190;SDS011;37253;48.736;9.294;2024-03-29T04:11:20;0.65;;;0.40;;
51190;SDS011;37253;48.736;9.294;2024-03-29T04:13:20;0.73;;;0.45;;
51190;SDS011;37253;48.736;9.294;2024-03-29T04:15:20;1.95;;;0.70;;
51190;SDS011;37253;48.736;9.294;2024-03-29T04:17:22;1.80;;;0.60;;
51190;SDS011;37253;48.736;9.294;2024-03-29T04:19:23;1.58;;;0.57;;
51190;SDS011;37253;48.736;9.294;2024-03-29T04:21:23;0.80;;;0.60;;
51190;SDS011;37253;48.736;9.294;2024-03-29T04:23:24;0.73;;;0.50;;
51190;SDS011;37253;48.736;9.294;2024-03-29T04:25:24;1.02;;;0.60;;
51190;SDS011;37253;48.736;9.294;2024-03-29T04:27:25;0.90;;;0.50;;
51190;SDS011;37253;48.736;9.294;2024-03-29T04:29:25;1.00;;;0.65;;
51190;SDS011;37253;48.736;9.294;2024-03-29T04:31:25;1.00;;;0.60;;
51190;SDS011;37253;48.736;9.294;2024-03-29T04:33:26;1.00;;;0.70;;
51190;SDS011;37253;48.736;9.294;2024-03-29T04:35:26;0.80;;;0.70;;
51190;SDS011;37253;48.736;9.294;2024-03-29T04:37:26;0.75;;;0.52;;
51190;SDS011;37253;48.736;9.294;2024-03-29T04:39:27;1.40;;;0.70;;
51190;SDS011;37253;48.736;9.294;2024-03-29T04:41:27;1.70;;;0.57;;
51190;SDS011;37253;48.736;9.294;2024-03-29T04:43:28;1.00;;;0.60;;
51190;SDS011;37253;48.736;9.294;2024-03-29T04:45:29;0.82;;;0.40;;
51190;SDS011;37253;48.736;9.294;2024-03-29T04:47:29;1.42;;;0.60;;
51190;SDS011;37253;48.736;9.294;2024-03-29T04:49:29;1.40;;;0.50;;
51190;SDS011;37253;48.736;9.294;2024-03-29T04:51:36;0.57;;;0.40;;
51190;SDS011;37253;48.736;9.294;2024-03-29T04:53:37;0.95;;;0.63;;
51190;SDS011;37253;48.736;9.294;2024-03-29T04:55:38;0.52;;;0.45;;
51190;SDS011;37253;48.736;9.294;2024-03-29T04:57:39;0.80;;;0.60;;
51190;SDS011;37253;48.736;9.294;2024-03-29T04:59:39;0.77;;;0.50;;
51190;SDS011;37253;48.736;9.294;2024-03-29T05:01:39;1.23;;;0.45;;
51190;SDS011;37253;48.736;9.294;2024-03-29T05:03:40;0.75;;;0.57;;
51190;SDS011;37253;48.736;9.294;2024-03-29T05:05:41;0.50;;;0.47;;
51190;SDS011;37253;48.736;9.294;2024-03-29T05:07:41;0.75;;;0.50;;
51190;SDS011;37253;48.736;9.294;2024-03-29T05:09:41;1.05;;;0.50;;
51190;SDS011;37253;48.736;9.294;2024-03-29T05:11:42;0.50;;;0.50;;
51190;SDS011;37253;48.736;9.294;2024-03-29T05:13:42;0.73;;;0.55;;
51190;SDS011;37253;48.736;9.294;2024-03-29T05:15:42;1.35;;;0.60;;
51190;SDS011;37253;48.736;9.294;2024-03-29T05:17:43;2.78;;;0.50;;
51190;SDS011;37253;48.736;9.294;2024-03-29T05:19:43;0.90;;;0.50;;
51190;SDS011;37253;48.736;9.294;2024-03-29T05:21:44;0.70;;;0.43;;
51190;SDS011;37253;48.736;9.294;2024-03-29T05:23:44;0.70;;;0.55;;
51190;SDS011;37253;48.736;9.294;2024-03-29T05:25:44;1.25;;;0.40;;
51190;SDS011;37253;48.736;9.294;2024-03-29T05:27:44;1.10;;;0.60;;
51190;SDS011;37253;48.736;9.294;2024-03-29T05:29:45;0.57;;;0.40;;
51190;SDS011;37253;48.736;9.294;2024-03-29T05:31:45;1.13;;;0.45;;
51190;SDS011;37253;48.736;9.294;2024-03-29T05:33:45;0.88;;;0.50;;
51190;SDS011;37253;48.736;9.294;2024-03-29T05:35:46;0.73;;;0.50;;
51190;SDS011;37253;48.736;9.294;2024-03-29T05:37:46;1.17;;;0.50;;
51190;SDS011;37253;48.736;9.294;2024-03-29T05:39:50;0.77;;;0.47;;
51190;SDS011;37253;48.736;9.294;2024-03-29T05:41:58;0.75;;;0.60;;
51190;SDS011;37253;48.736;9.294;2024-03-29T05:43:59;0.52;;;0.40;;
51190;SDS011;37253;48.736;9.294;2024-03-29T05:45:59;0.77;;;0.60;;
51190;SDS011;37253;48.736;9.294;2024-03-29T05:48:02;0.70;;;0.50;;
51190;SDS011;37253;48.736;9.294;2024-03-29T05:50:03;1.00;;;0.50;;
51190;SDS011;37253;48.736;9.294;2024-03-29T05:52:03;1.15;;;0.50;;
51190;SDS011;37253;48.736;9.294;2024-03-29T05:54:03;0.75;;;0.50;;
51190;SDS011;37253;48.736;9.294;2024-03-29T05:56:04;0.85;;;0.50;;
51190;SDS011;37253;48.736;9.294;2024-03-29T05:58:05;0.52;;;0.40;;
51190;SDS011;37253;48.736;9.294;2024-03-29T06:00:06;0.52;;;0.50;;
51190;SDS011;37253;48.736;9.294;2024-03-29T06:02:08;1.05;;;0.50;;
51190;SDS011;37253;48.736;9.294;2024-03-29T06:04:08;0.70;;;0.40;;
51190;SDS011;37253;48.736;9.294;2024-03-29T06:06:14;1.00;;;0.47;;
51190;SDS011;37253;48.736;9.294;2024-03-29T06:10:18;0.60;;;0.32;;
51190;SDS011;37253;48.736;9.294;2024-03-29T06:12:18;0.73;;;0.50;;
51190;SDS011;37253;48.736;9.294;2024-03-29T06:14:18;1.42;;;0.50;;
51190;SDS011;37253;48.736;9.294;2024-03-29T06:16:37;0.47;;;0.35;;
51190;SDS011;37253;48.736;9.294;2024-03-29T06:18:56;1.30;;;0.45;;
51190;SDS011;37253;48.736;9.294;2024-03-29T06:20:56;0.63;;;0.40;;
51190;SDS011;37253;48.736;9.294;2024-03-29T06:22:56;0.50;;;0.47;;
51190;SDS011;37253;48.736;9.294;2024-03-29T06:24:57;0.57;;;0.40;;
51190;SDS011;37253;48.736;9.294;2024-03-29T06:26:59;0.70;;;0.30;;
51190;SDS011;37253;48.736;9.294;2024-03-29T06:29:02;0.65;;;0.43;;
51190;SDS011;37253;48.736;9.294;2024-03-29T06:33:03;0.40;;;0.40;;
51190;SDS011;37253;48.736;9.294;2024-03-29T06:35:03;0.40;;;0.30;;
51190;SDS011;37253;48.736;9.294;2024-03-29T06:37:04;0.57;;;0.40;;
51190;SDS011;37253;48.736;9.294;2024-03-29T06:39:05;0.75;;;0.40;;
51190;SDS011;37253;48.736;9.294;2024-03-29T06:41:05;1.25;;;0.60;;
51190;SDS011;37253;48.736;9.294;2024-03-29T06:43:05;0.40;;;0.35;;
51190;SDS011;37253;48.736;9.294;2024-03-29T06:45:07;0.30;;;0.30;;
51190;SDS011;37253;48.736;9.294;2024-03-29T06:47:09;0.52;;;0.40;;
51190;SDS011;37253;48.736;9.294;2024-03-29T06:49:09;1.27;;;0.40;;
51190;SDS011;37253;48.736;9.294;2024-03-29T06:51:09;0.60;;;0.40;;
51190;SDS011;37253;48.736;9.294;2024-03-29T06:53:10;0.93;;;0.40;;
51190;SDS011;37253;48.736;9.294;2024-03-29T06:55:10;0.40;;;0.30;;
51190;SDS011;37253;48.736;9.294;2024-03-29T06:57:10;0.68;;;0.52;;
51190;SDS011;37253;48.736;9.294;2024-03-29T06:59:15;0.40;;;0.40;;
51190;SDS011;37253;48.736;9.294;2024-03-29T07:01:15;0.77;;;0.50;;
51190;SDS011;37253;48.736;9.294;2024-03-29T07:03:15;0.38;;;0.30;;
51190;SDS011;37253;48.736;9.294;2024-03-29T07:05:17;0.70;;;0.40;;
51190;SDS011;37253;48.736;9.294;2024-03-29T07:07:17;0.85;;;0.50;;
51190;SDS011;37253;48.736;9.294;2024-03-29T07:09:20;0.73;;;0.45;;
51190;SDS011;37253;48.736;9.294;2024-03-29T07:11:21;0.45;;;0.32;;
51190;SDS011;37253;48.736;9.294;2024-03-29T07:13:21;0.60;;;0.40;;
51190;SDS011;37253;48.736;9.294;2024-03-29T07:15:22;0.90;;;0.35;;
51190;SDS011;37253;48.736;9.294;2024-03-29T07:17:22;0.82;;;0.40;;
51190;SDS011;37253;48.736;9.294;2024-03-29T07:19:22;0.70;;;0.50;;
51190;SDS011;37253;48.736;9.294;2024-03-29T07:21:24;0.75;;;0.38;;
51190;SDS011;37253;48.736;9.294;2024-03-29T07:23:24;0.60;;;0.40;;
51190;SDS011;37253;48.736;9.294;2024-03-29T07:25:24;0.75;;;0.40;;
51190;SDS011;37253;48.736;9.294;2024-03-29T07:27:26;0.65;;;0.32;;
51190;SDS011;37253;48.736;9.294;2024-03-29T07:29:27;0.68;;;0.40;;
51190;SDS011;37253;48.736;9.294;2024-03-29T07:31:28;0.30;;;0.30;;
51190;SDS011;37253;48.736;9.294;2024-03-29T07:33:28;0.43;;;0.43;;
51190;SDS011;37253;48.736;9.294;2024-03-29T07:35:28;0.52;;;0.32;;
51190;SDS011;37253;48.736;9.294;2024-03-29T07:37:30;0.80;;;0.40;;
51190;SDS011;37253;48.736;9.294;2024-03-29T07:39:30;0.55;;;0.30;;
51190;SDS011;37253;48.736;9.294;2024-03-29T07:41:30;0.63;;;0.50;;
51190;SDS011;37253;48.736;9.294;2024-03-29T07:43:40;0.77;;;0.35;;
51190;SDS011;37253;48.736;9.294;2024-03-29T07:45:42;0.52;;;0.50;;
51190;SDS011;37253;48.736;9.294;2024-03-29T07:47:44;0.70;;;0.50;;
51190;SDS011;37253;48.736;9.294;2024-03-29T07:49:45;0.70;;;0.50;;
51190;SDS011;37253;48.736;9.294;2024-03-29T07:51:46;2.05;;;0.40;;
51190;SDS011;37253;48.736;9.294;2024-03-29T07:53:46;3.55;;;0.43;;
51190;SDS011;37253;48.736;9.294;2024-03-29T07:55:49;0.70;;;0.40;;
51190;SDS011;37253;48.736;9.294;2024-03-29T07:57:49;0.70;;;0.43;;
51190;SDS011;37253;48.736;9.294;2024-03-29T07:59:50;0.82;;;0.40;;
51190;SDS011;37253;48.736;9.294;2024-03-29T08:01:50;2.13;;;0.30;;
51190;SDS011;37253;48.736;9.294;2024-03-29T08:03:52;0.40;;;0.30;;
51190;SDS011;37253;48.736;9.294;2024-03-29T08:05:57;0.88;;;0.50;;
51190;SDS011;37253;48.736;9.294;2024-03-29T08:08:00;5.30;;;0.50;;
51190;SDS011;37253;48.736;9.294;2024-03-29T08:10:01;3.45;;;0.70;;
51190;SDS011;37253;48.736;9.294;2024-03-29T08:12:01;5.95;;;0.73;;
51190;SDS011;37253;48.736;9.294;2024-03-29T08:14:01;4.55;;;0.50;;
51190;SDS011;37253;48.736;9.294;2024-03-29T08:16:02;2.47;;;0.60;;
51190;SDS011;37253;48.736;9.294;2024-03-29T08:18:02;3.05;;;0.47;;
51190;SDS011;37253;48.736;9.294;2024-03-29T08:20:03;3.72;;;0.57;;
51190;SDS011;37253;48.736;9.294;2024-03-29T08:22:04;2.90;;;0.50;;
51190;SDS011;37253;48.736;9.294;2024-03-29T08:24:04;5.00;;;0.60;;
51190;SDS011;37253;48.736;9.294;2024-03-29T08:26:05;7.07;;;0.52;;
51190;SDS011;37253;48.736;9.294;2024-03-29T08:28:05;5.22;;;0.52;;
51190;SDS011;37253;48.736;9.294;2024-03-29T08:30:06;7.07;;;0.70;;
51190;SDS011;37253;48.736;9.294;2024-03-29T08:32:06;1.98;;;0.43;;
51190;SDS011;37253;48.736;9.294;2024-03-29T08:34:09;13.52;;;0.65;;
51190;SDS011;37253;48.736;9.294;2024-03-29T08:36:13;5.00;;;0.65;;
51190;SDS011;37253;48.736;9.294;2024-03-29T08:38:13;3.30;;;0.50;;
51190;SDS011;37253;48.736;9.294;2024-03-29T08:40:13;3.63;;;0.65;;
51190;SDS011;37253;48.736;9.294;2024-03-29T08:42:14;3.22;;;0.50;;
51190;SDS011;37253;48.736;9.294;2024-03-29T08:44:16;6.20;;;0.70;;
51190;SDS011;37253;48.736;9.294;2024-03-29T08:46:17;4.90;;;0.60;;
51190;SDS011;37253;48.736;9.294;2024-03-29T08:48:17;4.28;;;0.70;;
51190;SDS011;37253;48.736;9.294;2024-03-29T08:50:17;3.90;;;0.70;;
51190;SDS011;37253;48.736;9.294;2024-03-29T08:52:18;5.40;;;0.68;;
51190;SDS011;37253;48.736;9.294;2024-03-29T08:54:18;1.65;;;0.60;;
51190;SDS011;37253;48.736;9.294;2024-03-29T08:56:19;5.18;;;0.73;;
51190;SDS011;37253;48.736;9.294;2024-03-29T08:58:19;5.18;;;0.55;;
51190;SDS011;37253;48.736;9.294;2024-03-29T09:00:20;9.57;;;0.60;;
51190;SDS011;37253;48.736;9.294;2024-03-29T09:02:20;7.45;;;0.90;;
51190;SDS011;37253;48.736;9.294;2024-03-29T09:04:20;8.20;;;1.08;;
51190;SDS011;37253;48.736;9.294;2024-03-29T09:06:21;3.80;;;0.60;;
51190;SDS011;37253;48.736;9.294;2024-03-29T09:08:21;4.43;;;0.80;;
51190;SDS011;37253;48.736;9.294;2024-03-29T09:10:22;2.63;;;0.65;;
51190;SDS011;37253;48.736;9.294;2024-03-29T09:12:23;4.00;;;0.47;;
51190;SDS011;37253;48.736;9.294;2024-03-29T09:14:24;2.40;;;0.38;;
51190;SDS011;37253;48.736;9.294;2024-03-29T09:16:25;4.60;;;0.73;;
51190;SDS011;37253;48.736;9.294;2024-03-29T09:18:25;7.55;;;0.60;;
51190;SDS011;37253;48.736;9.294;2024-03-29T09:20:27;3.67;;;0.52;;
51190;SDS011;37253;48.736;9.294;2024-03-29T09:22:27;3.92;;;0.52;;
51190;SDS011;37253;48.736;9.294;2024-03-29T09:24:27;7.40;;;0.80;;
51190;SDS011;37253;48.736;9.294;2024-03-29T09:26:28;5.70;;;0.60;;
51190;SDS011;37253;48.736;9.294;2024-03-29T09:28:28;4.10;;;0.80;;
51190;SDS011;37253;48.736;9.294;2024-03-29T09:30:29;2.72;;;0.50;;
51190;SDS011;37253;48.736;9.294;2024-03-29T09:32:29;6.72;;;0.70;;
51190;SDS011;37253;48.736;9.294;2024-03-29T09:34:29;6.00;;;0.70;;
51190;SDS011;37253;48.736;9.294;2024-03-29T09:36:30;2.00;;;0.45;;
51190;SDS011;37253;48.736;9.294;2024-03-29T09:38:31;1.65;;;0.63;;
51190;SDS011;37253;48.736;9.294;2024-03-29T09:40:31;2.67;;;0.60;;
51190;SDS011;37253;48.736;9.294;2024-03-29T09:42:32;2.65;;;0.63;;
51190;SDS011;37253;48.736;9.294;2024-03-29T09:44:33;4.70;;;0.90;;
51190;SDS011;37253;48.736;9.294;2024-03-29T09:46:37;5.22;;;0.68;;
51190;SDS011;37253;48.736;9.294;2024-03-29T09:48:41;1.77;;;0.55;;
51190;SDS011;37253;48.736;9.294;2024-03-29T09:50:42;6.47;;;0.80;;
51190;SDS011;37253;48.736;9.294;2024-03-29T09:52:42;6.55;;;0.60;;
51190;SDS011;37253;48.736;9.294;2024-03-29T09:54:43;2.88;;;0.90;;
51190;SDS011;37253;48.736;9.294;2024-03-29T09:56:43;6.38;;;0.90;;
51190;SDS011;37253;48.736;9.294;2024-03-29T09:58:43;18.35;;;0.80;;
51190;SDS011;37253;48.736;9.294;2024-03-29T10:00:44;5.53;;;0.60;;
51190;SDS011;37253;48.736;9.294;2024-03-29T10:02:44;2.63;;;0.68;;
51190;SDS011;37253;48.736;9.294;2024-03-29T10:04:46;2.92;;;0.77;;
51190;SDS011;37253;48.736;9.294;2024-03-29T10:06:49;4.78;;;0.60;;
51190;SDS011;37253;48.736;9.294;2024-03-29T10:08:49;5.30;;;0.70;;
51190;SDS011;37253;48.736;9.294;2024-03-29T10:10:51;7.05;;;0.55;;
51190;SDS011;37253;48.736;9.294;2024-03-29T10:12:52;7.38;;;1.00;;
51190;SDS011;37253;48.736;9.294;2024-03-29T10:14:52;10.82;;;0.82;;
51190;SDS011;37253;48.736;9.294;2024-03-29T10:16:55;21.00;;;1.17;;
51190;SDS011;37253;48.736;9.294;2024-03-29T10:18:55;18.20;;;1.05;;
51190;SDS011;37253;48.736;9.294;2024-03-29T10:21:04;16.15;;;1.10;;
51190;SDS011;37253;48.736;9.294;2024-03-29T10:23:06;20.00;;;1.48;;
51190;SDS011;37253;48.736;9.294;2024-03-29T10:25:08;5.05;;;0.95;;
51190;SDS011;37253;48.736;9.294;2024-03-29T10:27:08;22.33;;;1.10;;
51190;SDS011;37253;48.736;9.294;2024-03-29T10:29:09;18.92;;;2.45;;
51190;SDS011;37253;48.736;9.294;2024-03-29T10:31:09;9.07;;;1.05;;
51190;SDS011;37253;48.736;9.294;2024-03-29T10:33:12;16.02;;;0.80;;
51190;SDS011;37253;48.736;9.294;2024-03-29T10:35:13;12.25;;;0.85;;
51190;SDS011;37253;48.736;9.294;2024-03-29T10:37:13;12.95;;;0.85;;
51190;SDS011;37253;48.736;9.294;2024-03-29T10:39:16;10.43;;;0.95;;
51190;SDS011;37253;48.736;9.294;2024-03-29T10:41:16;10.57;;;1.13;;
51190;SDS011;37253;48.736;9.294;2024-03-29T10:43:17;11.40;;;0.90;;
51190;SDS011;37253;48.736;9.294;2024-03-29T10:45:19;7.00;;;0.80;;
51190;SDS011;37253;48.736;9.294;2024-03-29T10:49:22;14.20;;;0.98;;
51190;SDS011;37253;48.736;9.294;2024-03-29T10:51:23;10.98;;;0.90;;
51190;SDS011;37253;48.736;9.294;2024-03-29T10:53:24;10.45;;;0.85;;
51190;SDS011;37253;48.736;9.294;2024-03-29T10:55:32;6.45;;;1.20;;
51190;SDS011;37253;48.736;9.294;2024-03-29T10:57:33;14.55;;;1.38;;
51190;SDS011;37253;48.736;9.294;2024-03-29T10:59:44;9.60;;;0.75;;
51190;SDS011;37253;48.736;9.294;2024-03-29T11:01:51;6.22;;;1.02;;
51190;SDS011;37253;48.736;9.294;2024-03-29T11:03:55;8.18;;;0.70;;
51190;SDS011;37253;48.736;9.294;2024-03-29T11:06:05;4.85;;;0.80;;
51190;SDS011;37253;48.736;9.294;2024-03-29T11:08:06;9.95;;;1.17;;
51190;SDS011;37253;48.736;9.294;2024-03-29T11:10:10;10.48;;;1.23;;
51190;SDS011;37253;48.736;9.294;2024-03-29T11:12:13;5.32;;;0.80;;
51190;SDS011;37253;48.736;9.294;2024-03-29T11:14:16;4.63;;;0.80;;
51190;SDS011;37253;48.736;9.294;2024-03-29T11:16:20;6.50;;;1.08;;
51190;SDS011;37253;48.736;9.294;2024-03-29T11:18:20;12.50;;;1.05;;
51190;SDS011;37253;48.736;9.294;2024-03-29T11:20:25;9.50;;;1.08;;
51190;SDS011;37253;48.736;9.294;2024-03-29T11:22:34;5.03;;;0.80;;
51190;SDS011;37253;48.736;9.294;2024-03-29T11:24:34;6.50;;;1.70;;
51190;SDS011;37253;48.736;9.294;2024-03-29T11:26:35;2.15;;;0.93;;
51190;SDS011;37253;48.736;9.294;2024-03-29T11:28:35;4.80;;;0.80;;
51190;SDS011;37253;48.736;9.294;2024-03-29T11:30:41;4.00;;;0.63;;
51190;SDS011;37253;48.736;9.294;2024-03-29T11:32:47;3.05;;;0.73;;
51190;SDS011;37253;48.736;9.294;2024-03-29T11:34:50;3.00;;;0.80;;
51190;SDS011;37253;48.736;9.294;2024-03-29T11:36:50;2.75;;;1.02;;
51190;SDS011;37253;48.736;9.294;2024-03-29T11:38:51;8.10;;;1.05;;
51190;SDS011;37253;48.736;9.294;2024-03-29T11:43:10;4.93;;;1.02;;
51190;SDS011;37253;48.736;9.294;2024-03-29T11:45:11;6.97;;;0.98;;
51190;SDS011;37253;48.736;9.294;2024-03-29T11:47:11;7.45;;;0.90;;
51190;SDS011;37253;48.736;9.294;2024-03-29T11:49:13;8.27;;;1.25;;
51190;SDS011;37253;48.736;9.294;2024-03-29T11:51:14;7.93;;;0.85;;
51190;SDS011;37253;48.736;9.294;2024-03-29T11:53:14;15.90;;;1.20;;
51190;SDS011;37253;48.736;9.294;2024-03-29T11:55:15;5.38;;;1.00;;
51190;SDS011;37253;48.736;9.294;2024-03-29T11:57:15;5.88;;;1.02;;
51190;SDS011;37253;48.736;9.294;2024-03-29T11:59:16;12.23;;;1.30;;
51190;SDS011;37253;48.736;9.294;2024-03-29T12:01:16;6.90;;;1.00;;
51190;SDS011;37253;48.736;9.294;2024-03-29T12:03:17;8.43;;;1.35;;
51190;SDS011;37253;48.736;9.294;2024-03-29T12:05:18;7.47;;;1.00;;
51190;SDS011;37253;48.736;9.294;2024-03-29T12:07:18;6.53;;;1.10;;
51190;SDS011;37253;48.736;9.294;2024-03-29T12:09:18;10.93;;;1.10;;
51190;SDS011;37253;48.736;9.294;2024-03-29T12:11:19;13.23;;;1.33;;
51190;SDS011;37253;48.736;9.294;2024-03-29T12:13:19;7.03;;;1.10;;
51190;SDS011;37253;48.736;9.294;2024-03-29T12:15:19;7.32;;;1.00;;
51190;SDS011;37253;48.736;9.294;2024-03-29T12:17:20;6.47;;;0.95;;
51190;SDS011;37253;48.736;9.294;2024-03-29T12:19:23;9.13;;;1.30;;